sensor_id;sensor_type;location;lat;lon;timestamp;pressure;altitude;pressure_sealevel;temperature;humidity
19086;BME280;9675;51.538;6.728;2023-08-06T00:02:26;100122.38;;;17.75;100.00
19086;BME280;9675;51.538;6.728;2023-08-06T00:04:53;100121.50;;;17.71;100.00
19086;BME280;9675;51.538;6.728;2023-08-06T00:07:20;100116.22;;;17.67;100.00
19086;BME280;9675;51.538;6.728;2023-08-06T00:09:47;100114.50;;;17.66;100.00
19086;BME280;9675;51.538;6.728;2023-08-06T00:12:14;100123.19;;;17.66;100.00
19086;BME280;9675;51.538;6.728;2023-08-06T00:14:43;100120.56;;;17.65;100.00
19086;BME280;9675;51.538;6.728;2023-08-06T00:17:10;100115.31;;;17.62;100.00
19086;BME280;9675;51.538;6.728;2023-08-06T00:19:37;100109.25;;;17.61;100.00
19086;BME280;9675;51.538;6.728;2023-08-06T00:22:05;100103.19;;;17.64;100.00
19086;BME280;9675;51.538;6.728;2023-08-06T00:24:32;100102.31;;;17.63;100.00
19086;BME280;9675;51.538;6.728;2023-08-06T00:26:59;100102.28;;;17.62;100.00
19086;BME280;9675;51.538;6.728;2023-08-06T00:29:26;100100.56;;;17.62;100.00
19086;BME280;9675;51.538;6.728;2023-08-06T00:31:54;100094.47;;;17.62;100.00
19086;BME280;9675;51.538;6.728;2023-08-06T00:34:21;100096.25;;;17.64;100.00
19086;BME280;9675;51.538;6.728;2023-08-06T00:36:48;100092.75;;;17.64;100.00
19086;BME280;9675;51.538;6.728;2023-08-06T00:39:15;100094.53;;;17.68;100.00
19086;BME280;9675;51.538;6.728;2023-08-06T00:41:42;100093.69;;;17.69;100.00
19086;BME280;9675;51.538;6.728;2023-08-06T00:44:09;100092.81;;;17.70;100.00
19086;BME280;9675;51.538;6.728;2023-08-06T00:46:36;100089.34;;;17.69;100.00
19086;BME280;9675;51.538;6.728;2023-08-06T00:49:05;100089.31;;;17.68;100.00
19086;BME280;9675;51.538;6.728;2023-08-06T00:51:33;100084.97;;;17.65;100.00
19086;BME280;9675;51.538;6.728;2023-08-06T00:54:01;100080.63;;;17.64;100.00
19086;BME280;9675;51.538;6.728;2023-08-06T00:56:29;100080.66;;;17.66;100.00
19086;BME280;9675;51.538;6.728;2023-08-06T00:58:56;100085.88;;;17.69;100.00
19086;BME280;9675;51.538;6.728;2023-08-06T01:01:23;100078.91;;;17.68;100.00
19086;BME280;9675;51.538;6.728;2023-08-06T01:03:51;100078.03;;;17.67;100.00
19086;BME280;9675;51.538;6.728;2023-08-06T01:06:35;100071.94;;;17.64;100.00
19086;BME280;9675;51.538;6.728;2023-08-06T01:09:21;100071.91;;;17.62;100.00
19086;BME280;9675;51.538;6.728;2023-08-06T01:12:06;100064.13;;;17.61;100.00
19086;BME280;9675;51.538;6.728;2023-08-06T01:14:59;100065.78;;;17.59;100.00
19086;BME280;9675;51.538;6.728;2023-08-06T01:17:29;100068.38;;;17.59;100.00
19086;BME280;9675;51.538;6.728;2023-08-06T01:19:57;100063.19;;;17.59;100.00
19086;BME280;9675;51.538;6.728;2023-08-06T01:22:25;100056.22;;;17.58;100.00
19086;BME280;9675;51.538;6.728;2023-08-06T01:24:53;100058.81;;;17.58;100.00
19086;BME280;9675;51.538;6.728;2023-08-06T01:27:28;100064.09;;;17.59;100.00
19086;BME280;9675;51.538;6.728;2023-08-06T01:30:02;100064.03;;;17.58;100.00
19086;BME280;9675;51.538;6.728;2023-08-06T01:32:35;100067.50;;;17.57;100.00
19086;BME280;9675;51.538;6.728;2023-08-06T01:35:07;100059.69;;;17.57;100.00
19086;BME280;9675;51.538;6.728;2023-08-06T01:37:38;100062.28;;;17.57;100.00
19086;BME280;9675;51.538;6.728;2023-08-06T01:40:09;100063.16;;;17.56;100.00
19086;BME280;9675;51.538;6.728;2023-08-06T01:42:36;100057.97;;;17.56;100.00
19086;BME280;9675;51.538;6.728;2023-08-06T01:45:04;100064.88;;;17.54;100.00
19086;BME280;9675;51.538;6.728;2023-08-06T01:47:32;100052.72;;;17.53;100.00
19086;BME280;9675;51.538;6.728;2023-08-06T01:49:59;100050.13;;;17.51;100.00
19086;BME280;9675;51.538;6.728;2023-08-06T01:52:26;100051.84;;;17.52;100.00
19086;BME280;9675;51.538;6.728;2023-08-06T01:54:54;100049.28;;;17.55;100.00
19086;BME280;9675;51.538;6.728;2023-08-06T01:57:22;100051.88;;;17.55;100.00
19086;BME280;9675;51.538;6.728;2023-08-06T01:59:49;100052.72;;;17.53;100.00
19086;BME280;9675;51.538;6.728;2023-08-06T02:02:16;100050.97;;;17.50;100.00
19086;BME280;9675;51.538;6.728;2023-08-06T02:04:43;100054.41;;;17.48;100.00
19086;BME280;9675;51.538;6.728;2023-08-06T02:07:10;100048.31;;;17.47;100.00
19086;BME280;9675;51.538;6.728;2023-08-06T02:09:37;100055.22;;;17.43;100.00
19086;BME280;9675;51.538;6.728;2023-08-06T02:12:06;100044.81;;;17.42;100.00
19086;BME280;9675;51.538;6.728;2023-08-06T02:14:33;100052.63;;;17.40;100.00
19086;BME280;9675;51.538;6.728;2023-08-06T02:17:00;100049.13;;;17.41;100.00
19086;BME280;9675;51.538;6.728;2023-08-06T02:19:28;100043.94;;;17.40;100.00
19086;BME280;9675;51.538;6.728;2023-08-06T02:21:55;100043.88;;;17.37;100.00
19086;BME280;9675;51.538;6.728;2023-08-06T02:24:22;100044.75;;;17.37;100.00
19086;BME280;9675;51.538;6.728;2023-08-06T02:26:49;100049.13;;;17.38;100.00
19086;BME280;9675;51.538;6.728;2023-08-06T02:29:18;100045.63;;;17.38;100.00
19086;BME280;9675;51.538;6.728;2023-08-06T02:31:45;100035.19;;;17.36;100.00
19086;BME280;9675;51.538;6.728;2023-08-06T02:34:12;100042.16;;;17.37;100.00
19086;BME280;9675;51.538;6.728;2023-08-06T02:36:40;100040.41;;;17.36;100.00
19086;BME280;9675;51.538;6.728;2023-08-06T02:39:07;100036.09;;;17.37;100.00
19086;BME280;9675;51.538;6.728;2023-08-06T02:41:34;100030.88;;;17.37;100.00
19086;BME280;9675;51.538;6.728;2023-08-06T02:44:01;100027.41;;;17.36;100.00
19086;BME280;9675;51.538;6.728;2023-08-06T02:46:29;100023.94;;;17.37;100.00
19086;BME280;9675;51.538;6.728;2023-08-06T02:48:56;100019.59;;;17.36;100.00
19086;BME280;9675;51.538;6.728;2023-08-06T02:51:23;100027.41;;;17.38;100.00
19086;BME280;9675;51.538;6.728;2023-08-06T02:53:50;100031.75;;;17.37;100.00
19086;BME280;9675;51.538;6.728;2023-08-06T02:56:17;100020.47;;;17.37;100.00
19086;BME280;9675;51.538;6.728;2023-08-06T02:58:44;100020.47;;;17.35;100.00
19086;BME280;9675;51.538;6.728;2023-08-06T03:01:11;100011.78;;;17.35;100.00
19086;BME280;9675;51.538;6.728;2023-08-06T03:03:40;100011.78;;;17.35;100.00
19086;BME280;9675;51.538;6.728;2023-08-06T03:06:07;100009.16;;;17.33;100.00
19086;BME280;9675;51.538;6.728;2023-08-06T03:08:34;100011.75;;;17.32;100.00
19086;BME280;9675;51.538;6.728;2023-08-06T03:11:01;100002.19;;;17.29;100.00
19086;BME280;9675;51.538;6.728;2023-08-06T03:13:28;100008.28;;;17.30;100.00
19086;BME280;9675;51.538;6.728;2023-08-06T03:15:56;100000.47;;;17.31;100.00
19086;BME280;9675;51.538;6.728;2023-08-06T03:18:24;99994.38;;;17.29;100.00
19086;BME280;9675;51.538;6.728;2023-08-06T03:20:53;99997.00;;;17.29;100.00
19086;BME280;9675;51.538;6.728;2023-08-06T03:23:20;99993.50;;;17.27;100.00
19086;BME280;9675;51.538;6.728;2023-08-06T03:25:47;99994.34;;;17.26;100.00
19086;BME280;9675;51.538;6.728;2023-08-06T03:28:14;99993.47;;;17.26;100.00
19086;BME280;9675;51.538;6.728;2023-08-06T03:30:41;99996.06;;;17.26;100.00
19086;BME280;9675;51.538;6.728;2023-08-06T03:33:08;100004.81;;;17.29;100.00
19086;BME280;9675;51.538;6.728;2023-08-06T03:35:35;99998.69;;;17.27;100.00
19086;BME280;9675;51.538;6.728;2023-08-06T03:38:04;100001.34;;;17.30;100.00
19086;BME280;9675;51.538;6.728;2023-08-06T03:40:30;99995.22;;;17.27;100.00
19086;BME280;9675;51.538;6.728;2023-08-06T03:42:57;99992.59;;;17.25;100.00
19086;BME280;9675;51.538;6.728;2023-08-06T03:45:24;99999.56;;;17.25;100.00
19086;BME280;9675;51.538;6.728;2023-08-06T03:47:51;99993.47;;;17.24;100.00
19086;BME280;9675;51.538;6.728;2023-08-06T03:50:18;99996.09;;;17.24;100.00
19086;BME280;9675;51.538;6.728;2023-08-06T03:52:45;99987.41;;;17.24;100.00
19086;BME280;9675;51.538;6.728;2023-08-06T03:55:14;99983.91;;;17.23;100.00
19086;BME280;9675;51.538;6.728;2023-08-06T03:57:41;99993.47;;;17.24;100.00
19086;BME280;9675;51.538;6.728;2023-08-06T04:00:09;99986.53;;;17.23;100.00
19086;BME280;9675;51.538;6.728;2023-08-06T04:02:36;99988.25;;;17.23;100.00
19086;BME280;9675;51.538;6.728;2023-08-06T04:05:03;99991.72;;;17.23;100.00
19086;BME280;9675;51.538;6.728;2023-08-06T04:07:30;99985.66;;;17.23;100.00
19086;BME280;9675;51.538;6.728;2023-08-06T04:09:59;99989.13;;;17.23;100.00
19086;BME280;9675;51.538;6.728;2023-08-06T04:12:28;99990.84;;;17.23;100.00
19086;BME280;9675;51.538;6.728;2023-08-06T04:14:57;99991.72;;;17.23;100.00
19086;BME280;9675;51.538;6.728;2023-08-06T04:17:24;99989.13;;;17.23;100.00
19086;BME280;9675;51.538;6.728;2023-08-06T04:19:53;99989.09;;;17.22;100.00
19086;BME280;9675;51.538;6.728;2023-08-06T04:22:21;99990.81;;;17.21;100.00
19086;BME280;9675;51.538;6.728;2023-08-06T04:24:48;99985.63;;;17.21;100.00
19086;BME280;9675;51.538;6.728;2023-08-06T04:27:17;99989.97;;;17.22;100.00
19086;BME280;9675;51.538;6.728;2023-08-06T04:29:45;99991.69;;;17.20;100.00
19086;BME280;9675;51.538;6.728;2023-08-06T04:32:13;99989.06;;;17.20;100.00
19086;BME280;9675;51.538;6.728;2023-08-06T04:34:40;99989.97;;;17.19;100.00
19086;BME280;9675;51.538;6.728;2023-08-06T04:37:07;99992.56;;;17.19;100.00
19086;BME280;9675;51.538;6.728;2023-08-06T04:39:34;99988.22;;;17.18;100.00
19086;BME280;9675;51.538;6.728;2023-08-06T04:42:01;99992.53;;;17.18;100.00
19086;BME280;9675;51.538;6.728;2023-08-06T04:44:28;99987.31;;;17.16;100.00
19086;BME280;9675;51.538;6.728;2023-08-06T04:46:56;99994.25;;;17.14;100.00
19086;BME280;9675;51.538;6.728;2023-08-06T04:49:25;99984.69;;;17.13;100.00
19086;BME280;9675;51.538;6.728;2023-08-06T04:51:52;99996.84;;;17.14;100.00
19086;BME280;9675;51.538;6.728;2023-08-06T04:54:19;99994.25;;;17.14;100.00
19086;BME280;9675;51.538;6.728;2023-08-06T04:56:46;99992.47;;;17.12;100.00
19086;BME280;9675;51.538;6.728;2023-08-06T04:59:13;99991.59;;;17.11;100.00
19086;BME280;9675;51.538;6.728;2023-08-06T05:01:40;99995.06;;;17.10;100.00
19086;BME280;9675;51.538;6.728;2023-08-06T05:04:08;100001.19;;;17.14;100.00
19086;BME280;9675;51.538;6.728;2023-08-06T05:06:35;100001.16;;;17.15;100.00
19086;BME280;9675;51.538;6.728;2023-08-06T05:09:03;99995.94;;;17.11;100.00
19086;BME280;9675;51.538;6.728;2023-08-06T05:11:31;100000.25;;;17.10;100.00
19086;BME280;9675;51.538;6.728;2023-08-06T05:13:58;100000.25;;;17.10;100.00
19086;BME280;9675;51.538;6.728;2023-08-06T05:16:25;100007.22;;;17.11;100.00
19086;BME280;9675;51.538;6.728;2023-08-06T05:18:52;100000.31;;;17.13;100.00
19086;BME280;9675;51.538;6.728;2023-08-06T05:21:21;100000.34;;;17.15;100.00
19086;BME280;9675;51.538;6.728;2023-08-06T05:23:48;99995.13;;;17.16;100.00
19086;BME280;9675;51.538;6.728;2023-08-06T05:26:15;100007.28;;;17.17;100.00
19086;BME280;9675;51.538;6.728;2023-08-06T05:28:44;100009.03;;;17.18;100.00
19086;BME280;9675;51.538;6.728;2023-08-06T05:31:11;100002.06;;;17.17;100.00
19086;BME280;9675;51.538;6.728;2023-08-06T05:33:38;100009.06;;;17.20;100.00
19086;BME280;9675;51.538;6.728;2023-08-06T05:36:05;100013.38;;;17.19;100.00
19086;BME280;9675;51.538;6.728;2023-08-06T05:38:34;100015.09;;;17.19;100.00
19086;BME280;9675;51.538;6.728;2023-08-06T05:41:01;100017.69;;;17.20;100.00
19086;BME280;9675;51.538;6.728;2023-08-06T05:43:28;100020.31;;;17.22;100.00
19086;BME280;9675;51.538;6.728;2023-08-06T05:45:56;100016.00;;;17.22;100.00
19086;BME280;9675;51.538;6.728;2023-08-06T05:48:23;100022.06;;;17.20;100.00
19086;BME280;9675;51.538;6.728;2023-08-06T05:50:52;100026.41;;;17.22;100.00
19086;BME280;9675;51.538;6.728;2023-08-06T05:53:19;100029.91;;;17.24;100.00
19086;BME280;9675;51.538;6.728;2023-08-06T05:55:47;100026.41;;;17.25;100.00
19086;BME280;9675;51.538;6.728;2023-08-06T05:58:14;100033.34;;;17.23;100.00
19086;BME280;9675;51.538;6.728;2023-08-06T06:00:41;100029.03;;;17.24;100.00
19086;BME280;9675;51.538;6.728;2023-08-06T06:03:09;100034.19;;;17.21;100.00
19086;BME280;9675;51.538;6.728;2023-08-06T06:05:38;100037.66;;;17.21;100.00
19086;BME280;9675;51.538;6.728;2023-08-06T06:08:05;100042.00;;;17.22;100.00
19086;BME280;9675;51.538;6.728;2023-08-06T06:10:32;100036.78;;;17.21;100.00
19086;BME280;9675;51.538;6.728;2023-08-06T06:13:00;100040.25;;;17.21;100.00
19086;BME280;9675;51.538;6.728;2023-08-06T06:15:27;100042.00;;;17.22;100.00
19086;BME280;9675;51.538;6.728;2023-08-06T06:17:54;100046.38;;;17.23;100.00
19086;BME280;9675;51.538;6.728;2023-08-06T06:20:22;100047.22;;;17.22;100.00
19086;BME280;9675;51.538;6.728;2023-08-06T06:22:49;100045.47;;;17.21;100.00
19086;BME280;9675;51.538;6.728;2023-08-06T06:25:16;100047.22;;;17.22;100.00
19086;BME280;9675;51.538;6.728;2023-08-06T06:27:43;100045.53;;;17.24;100.00
19086;BME280;9675;51.538;6.728;2023-08-06T06:30:11;100043.78;;;17.26;100.00
19086;BME280;9675;51.538;6.728;2023-08-06T06:32:40;100043.81;;;17.31;100.00
19086;BME280;9675;51.538;6.728;2023-08-06T06:35:08;100048.22;;;17.35;100.00
19086;BME280;9675;51.538;6.728;2023-08-06T06:37:35;100057.78;;;17.37;100.00
19086;BME280;9675;51.538;6.728;2023-08-06T06:40:02;100056.06;;;17.39;100.00
19086;BME280;9675;51.538;6.728;2023-08-06T06:42:30;100056.13;;;17.44;100.00
19086;BME280;9675;51.538;6.728;2023-08-06T06:44:56;100057.03;;;17.49;100.00
19086;BME280;9675;51.538;6.728;2023-08-06T06:47:24;100059.66;;;17.54;100.00
19086;BME280;9675;51.538;6.728;2023-08-06T06:49:51;100054.47;;;17.57;100.00
19086;BME280;9675;51.538;6.728;2023-08-06T06:52:18;100060.63;;;17.62;100.00
19086;BME280;9675;51.538;6.728;2023-08-06T06:54:45;100058.94;;;17.67;100.00
19086;BME280;9675;51.538;6.728;2023-08-06T06:57:12;100056.38;;;17.70;100.00
19086;BME280;9675;51.538;6.728;2023-08-06T06:59:39;100060.75;;;17.75;100.00
19086;BME280;9675;51.538;6.728;2023-08-06T07:02:07;100057.28;;;17.78;100.00
19086;BME280;9675;51.538;6.728;2023-08-06T07:04:35;100055.59;;;17.83;100.00
19086;BME280;9675;51.538;6.728;2023-08-06T07:07:03;100065.19;;;17.89;100.00
19086;BME280;9675;51.538;6.728;2023-08-06T07:09:30;100059.13;;;17.91;100.00
19086;BME280;9675;51.538;6.728;2023-08-06T07:11:57;100068.75;;;17.97;100.00
19086;BME280;9675;51.538;6.728;2023-08-06T07:14:25;100064.38;;;17.99;100.00
19086;BME280;9675;51.538;6.728;2023-08-06T07:16:52;100073.97;;;18.04;100.00
19086;BME280;9675;51.538;6.728;2023-08-06T07:19:19;100069.69;;;18.08;100.00
19086;BME280;9675;51.538;6.728;2023-08-06T07:21:48;100069.69;;;18.11;100.00
19086;BME280;9675;51.538;6.728;2023-08-06T07:24:15;100066.25;;;18.15;100.00
19086;BME280;9675;51.538;6.728;2023-08-06T07:26:42;100065.41;;;18.17;100.00
19086;BME280;9675;51.538;6.728;2023-08-06T07:29:09;100066.25;;;18.19;100.00
19086;BME280;9675;51.538;6.728;2023-08-06T07:31:36;100070.63;;;18.20;100.00
19086;BME280;9675;51.538;6.728;2023-08-06T07:34:03;100070.63;;;18.20;100.00
19086;BME280;9675;51.538;6.728;2023-08-06T07:36:30;100074.13;;;18.22;100.00
19086;BME280;9675;51.538;6.728;2023-08-06T07:38:59;100078.47;;;18.25;100.00
19086;BME280;9675;51.538;6.728;2023-08-06T07:41:26;100074.13;;;18.25;100.00
19086;BME280;9675;51.538;6.728;2023-08-06T07:43:53;100075.88;;;18.26;100.00
19086;BME280;9675;51.538;6.728;2023-08-06T07:46:20;100076.75;;;18.27;100.00
19086;BME280;9675;51.538;6.728;2023-08-06T07:48:47;100078.47;;;18.26;100.00
19086;BME280;9675;51.538;6.728;2023-08-06T07:51:14;100079.38;;;18.29;100.00
19086;BME280;9675;51.538;6.728;2023-08-06T07:53:41;100079.38;;;18.29;100.00
19086;BME280;9675;51.538;6.728;2023-08-06T07:56:09;100078.50;;;18.31;100.00
19086;BME280;9675;51.538;6.728;2023-08-06T07:58:36;100081.13;;;18.33;100.00
19086;BME280;9675;51.538;6.728;2023-08-06T08:01:03;100078.50;;;18.34;100.00
19086;BME280;9675;51.538;6.728;2023-08-06T08:03:30;100074.19;;;18.36;100.00
19086;BME280;9675;51.538;6.728;2023-08-06T08:05:57;100082.06;;;18.39;100.00
19086;BME280;9675;51.538;6.728;2023-08-06T08:08:24;100082.94;;;18.43;100.00
19086;BME280;9675;51.538;6.728;2023-08-06T08:10:51;100080.34;;;18.47;100.00
19086;BME280;9675;51.538;6.728;2023-08-06T08:13:22;100084.72;;;18.53;100.00
19086;BME280;9675;51.538;6.728;2023-08-06T08:15:49;100083.03;;;18.58;100.00
19086;BME280;9675;51.538;6.728;2023-08-06T08:18:16;100090.88;;;18.62;100.00
19086;BME280;9675;51.538;6.728;2023-08-06T08:20:44;100088.28;;;18.64;100.00
19086;BME280;9675;51.538;6.728;2023-08-06T08:23:11;100087.44;;;18.70;100.00
19086;BME280;9675;51.538;6.728;2023-08-06T08:25:38;100081.34;;;18.72;100.00
19086;BME280;9675;51.538;6.728;2023-08-06T08:28:05;100090.94;;;18.78;100.00
19086;BME280;9675;51.538;6.728;2023-08-06T08:30:33;100091.81;;;18.77;100.00
19086;BME280;9675;51.538;6.728;2023-08-06T08:33:00;100096.16;;;18.76;100.00
19086;BME280;9675;51.538;6.728;2023-08-06T08:35:27;100097.03;;;18.75;100.00
19086;BME280;9675;51.538;6.728;2023-08-06T08:37:54;100095.28;;;18.74;100.00
19086;BME280;9675;51.538;6.728;2023-08-06T08:40:30;100097.03;;;18.75;100.00
19086;BME280;9675;51.538;6.728;2023-08-06T08:42:59;100094.44;;;18.75;100.00
19086;BME280;9675;51.538;6.728;2023-08-06T08:45:29;100091.81;;;18.75;100.00
19086;BME280;9675;51.538;6.728;2023-08-06T08:47:57;100100.50;;;18.77;100.00
19086;BME280;9675;51.538;6.728;2023-08-06T08:50:24;100102.25;;;18.81;100.00
19086;BME280;9675;51.538;6.728;2023-08-06T08:52:52;100095.31;;;18.86;100.00
19086;BME280;9675;51.538;6.728;2023-08-06T08:55:21;100099.69;;;18.92;100.00
19086;BME280;9675;51.538;6.728;2023-08-06T08:57:49;100092.78;;;18.95;100.00
19086;BME280;9675;51.538;6.728;2023-08-06T09:00:16;100101.47;;;18.99;100.00
19086;BME280;9675;51.538;6.728;2023-08-06T09:02:45;100098.88;;;19.00;100.00
19086;BME280;9675;51.538;6.728;2023-08-06T09:05:15;100106.72;;;19.03;100.00
19086;BME280;9675;51.538;6.728;2023-08-06T09:07:48;100114.56;;;19.06;100.00
19086;BME280;9675;51.538;6.728;2023-08-06T09:10:17;100117.19;;;19.06;100.00
19086;BME280;9675;51.538;6.728;2023-08-06T09:12:48;100115.41;;;19.08;100.00
19086;BME280;9675;51.538;6.728;2023-08-06T09:15:17;100118.03;;;19.08;100.00
19086;BME280;9675;51.538;6.728;2023-08-06T09:17:44;100117.16;;;19.09;100.00
19086;BME280;9675;51.538;6.728;2023-08-06T09:20:15;100121.53;;;19.10;100.00
19086;BME280;9675;51.538;6.728;2023-08-06T09:22:42;100123.28;;;19.12;100.00
19086;BME280;9675;51.538;6.728;2023-08-06T09:25:10;100121.50;;;19.12;100.00
19086;BME280;9675;51.538;6.728;2023-08-06T09:27:39;100122.38;;;19.13;100.00
19086;BME280;9675;51.538;6.728;2023-08-06T09:30:07;100124.13;;;19.12;100.00
19086;BME280;9675;51.538;6.728;2023-08-06T09:32:48;100131.09;;;19.13;100.00
19086;BME280;9675;51.538;6.728;2023-08-06T09:35:18;100132.84;;;19.16;100.00
19086;BME280;9675;51.538;6.728;2023-08-06T09:37:45;100132.00;;;19.17;100.00
19086;BME280;9675;51.538;6.728;2023-08-06T09:40:26;100131.13;;;19.16;100.00
19086;BME280;9675;51.538;6.728;2023-08-06T09:42:53;100130.25;;;19.16;100.00
19086;BME280;9675;51.538;6.728;2023-08-06T09:45:21;100127.63;;;19.16;100.00
19086;BME280;9675;51.538;6.728;2023-08-06T09:47:49;100134.59;;;19.15;100.00
19086;BME280;9675;51.538;6.728;2023-08-06T09:50:19;100128.50;;;19.15;100.00
19086;BME280;9675;51.538;6.728;2023-08-06T09:52:47;100127.59;;;19.13;100.00
19086;BME280;9675;51.538;6.728;2023-08-06T09:55:15;100131.97;;;19.14;100.00
19086;BME280;9675;51.538;6.728;2023-08-06T09:57:43;100132.00;;;19.17;100.00
19086;BME280;9675;51.538;6.728;2023-08-06T10:00:11;100136.34;;;19.21;100.00
19086;BME280;9675;51.538;6.728;2023-08-06T10:02:39;100135.50;;;19.26;100.00
19086;BME280;9675;51.538;6.728;2023-08-06T10:05:08;100146.84;;;19.31;100.00
19086;BME280;9675;51.538;6.728;2023-08-06T10:07:37;100137.25;;;19.35;100.00
19086;BME280;9675;51.538;6.728;2023-08-06T10:10:07;100139.03;;;19.37;100.00
19086;BME280;9675;51.538;6.728;2023-08-06T10:12:39;100144.25;;;19.42;100.00
19086;BME280;9675;51.538;6.728;2023-08-06T10:15:11;100139.94;;;19.45;100.00
19086;BME280;9675;51.538;6.728;2023-08-06T10:17:40;100138.19;;;19.46;100.00
19086;BME280;9675;51.538;6.728;2023-08-06T10:20:09;100147.78;;;19.47;100.00
19086;BME280;9675;51.538;6.728;2023-08-06T10:22:43;100142.56;;;19.47;100.00
19086;BME280;9675;51.538;6.728;2023-08-06T10:25:16;100150.38;;;19.50;100.00
19086;BME280;9675;51.538;6.728;2023-08-06T10:27:54;100138.19;;;19.50;100.00
19086;BME280;9675;51.538;6.728;2023-08-06T10:30:26;100146.03;;;19.55;100.00
19086;BME280;9675;51.538;6.728;2023-08-06T10:32:55;100143.47;;;19.58;100.00
19086;BME280;9675;51.538;6.728;2023-08-06T10:35:35;100144.28;;;19.59;100.00
19086;BME280;9675;51.538;6.728;2023-08-06T10:38:09;100139.09;;;19.60;100.00
19086;BME280;9675;51.538;6.728;2023-08-06T10:40:40;100147.81;;;19.65;100.00
19086;BME280;9675;51.538;6.728;2023-08-06T10:43:08;100136.50;;;19.68;100.00
19086;BME280;9675;51.538;6.728;2023-08-06T10:45:37;100140.88;;;19.73;100.00
19086;BME280;9675;51.538;6.728;2023-08-06T10:48:05;100146.06;;;19.75;100.00
19086;BME280;9675;51.538;6.728;2023-08-06T10:50:32;100143.47;;;19.81;100.00
19086;BME280;9675;51.538;6.728;2023-08-06T10:53:04;100154.78;;;19.81;100.00
19086;BME280;9675;51.538;6.728;2023-08-06T10:55:35;100165.25;;;19.77;100.00
19086;BME280;9675;51.538;6.728;2023-08-06T10:58:04;100167.81;;;19.65;100.00
19086;BME280;9675;51.538;6.728;2023-08-06T11:00:31;100173.03;;;19.60;100.00
19086;BME280;9675;51.538;6.728;2023-08-06T11:02:58;100172.16;;;19.53;100.00
19086;BME280;9675;51.538;6.728;2023-08-06T11:05:25;100175.66;;;19.48;100.00
19086;BME280;9675;51.538;6.728;2023-08-06T11:07:52;100176.50;;;19.45;100.00
19086;BME280;9675;51.538;6.728;2023-08-06T11:10:19;100172.13;;;19.44;100.00
19086;BME280;9675;51.538;6.728;2023-08-06T11:12:48;100189.50;;;19.44;100.00
19086;BME280;9675;51.538;6.728;2023-08-06T11:15:15;100184.28;;;19.41;100.00
19086;BME280;9675;51.538;6.728;2023-08-06T11:17:42;100191.22;;;19.39;100.00
19086;BME280;9675;51.538;6.728;2023-08-06T11:20:10;100196.47;;;19.37;100.00
19086;BME280;9675;51.538;6.728;2023-08-06T11:22:38;100193.84;;;19.37;100.00
19086;BME280;9675;51.538;6.728;2023-08-06T11:25:07;100198.19;;;19.34;100.00
19086;BME280;9675;51.538;6.728;2023-08-06T11:27:34;100204.28;;;19.31;100.00
19086;BME280;9675;51.538;6.728;2023-08-06T11:30:03;100206.88;;;19.30;100.00
19086;BME280;9675;51.538;6.728;2023-08-06T11:32:31;100207.75;;;19.27;100.00
19086;BME280;9675;51.538;6.728;2023-08-06T11:34:59;100210.31;;;19.23;100.00
19086;BME280;9675;51.538;6.728;2023-08-06T11:37:26;100216.41;;;19.23;100.00
19086;BME280;9675;51.538;6.728;2023-08-06T11:39:53;100220.75;;;19.23;100.00
19086;BME280;9675;51.538;6.728;2023-08-06T11:42:22;100228.59;;;19.20;100.00
19086;BME280;9675;51.538;6.728;2023-08-06T11:44:50;100235.53;;;19.19;100.00
19086;BME280;9675;51.538;6.728;2023-08-06T11:47:19;100245.09;;;19.19;100.00
19086;BME280;9675;51.538;6.728;2023-08-06T11:49:48;100232.91;;;19.16;100.00
19086;BME280;9675;51.538;6.728;2023-08-06T11:52:19;100253.78;;;19.15;100.00
19086;BME280;9675;51.538;6.728;2023-08-06T11:54:48;100234.63;;;19.09;100.00
19086;BME280;9675;51.538;6.728;2023-08-06T11:57:26;100242.44;;;19.08;100.00
19086;BME280;9675;51.538;6.728;2023-08-06T11:59:53;100247.66;;;19.08;100.00
19086;BME280;9675;51.538;6.728;2023-08-06T12:02:22;100245.91;;;19.07;100.00
19086;BME280;9675;51.538;6.728;2023-08-06T12:05:04;100245.03;;;19.03;100.00
19086;BME280;9675;51.538;6.728;2023-08-06T12:07:33;100252.84;;;19.03;100.00
19086;BME280;9675;51.538;6.728;2023-08-06T12:10:04;100260.66;;;19.02;100.00
19086;BME280;9675;51.538;6.728;2023-08-06T12:12:31;100256.34;;;19.01;100.00
19086;BME280;9675;51.538;6.728;2023-08-06T12:14:58;100250.25;;;19.00;100.00
19086;BME280;9675;51.538;6.728;2023-08-06T12:17:27;100266.75;;;18.99;100.00
19086;BME280;9675;51.538;6.728;2023-08-06T12:19:54;100276.34;;;19.00;100.00
19086;BME280;9675;51.538;6.728;2023-08-06T12:22:21;100268.50;;;19.00;100.00
19086;BME280;9675;51.538;6.728;2023-08-06T12:24:48;100266.78;;;19.01;100.00
19086;BME280;9675;51.538;6.728;2023-08-06T12:27:15;100269.34;;;18.99;100.00
19086;BME280;9675;51.538;6.728;2023-08-06T12:29:43;100271.13;;;19.00;100.00
19086;BME280;9675;51.538;6.728;2023-08-06T12:32:11;100269.34;;;18.99;100.00
19086;BME280;9675;51.538;6.728;2023-08-06T12:34:41;100274.59;;;18.99;100.00
19086;BME280;9675;51.538;6.728;2023-08-06T12:37:09;100271.97;;;18.99;100.00
19086;BME280;9675;51.538;6.728;2023-08-06T12:39:36;100275.47;;;19.00;100.00
19086;BME280;9675;51.538;6.728;2023-08-06T12:42:05;100278.09;;;19.01;100.00
19086;BME280;9675;51.538;6.728;2023-08-06T12:44:33;100281.53;;;19.02;100.00
19086;BME280;9675;51.538;6.728;2023-08-06T12:47:00;100292.00;;;19.03;100.00
19086;BME280;9675;51.538;6.728;2023-08-06T12:49:27;100290.25;;;19.02;100.00
19086;BME280;9675;51.538;6.728;2023-08-06T12:51:56;100298.97;;;19.01;100.00
19086;BME280;9675;51.538;6.728;2023-08-06T12:54:26;100299.81;;;19.02;100.00
19086;BME280;9675;51.538;6.728;2023-08-06T12:56:53;100304.19;;;19.04;100.00